createdAt,value
2017-10-20T00:00:17.550Z,11.00
2017-10-20T00:02:46.098Z,10.90
2017-10-20T00:07:49.359Z,11.00
2017-10-20T00:10:17.729Z,11.00
2017-10-20T00:12:46.161Z,10.90
2017-10-20T00:15:14.653Z,11.00
2017-10-20T00:17:43.022Z,10.90
2017-10-20T00:20:12.154Z,10.90
2017-10-20T00:22:40.565Z,10.90
2017-10-20T00:25:09.002Z,11.00
2017-10-20T00:27:37.691Z,11.00
2017-10-20T00:30:06.100Z,11.00
2017-10-20T00:32:34.491Z,11.00
2017-10-20T00:35:02.895Z,10.90
2017-10-20T00:37:31.732Z,11.00
2017-10-20T00:40:00.084Z,11.00
2017-10-20T00:42:28.520Z,11.00
2017-10-20T00:44:57.083Z,10.90
2017-10-20T00:47:25.468Z,11.00
2017-10-20T00:49:53.874Z,11.00
2017-10-20T00:52:23.100Z,11.00
2017-10-20T00:54:51.507Z,11.00
2017-10-20T00:57:19.934Z,10.90
2017-10-20T00:59:49.227Z,10.90
2017-10-20T01:02:18.585Z,11.10
2017-10-20T01:04:46.972Z,11.00
2017-10-20T01:07:15.436Z,11.00
2017-10-20T01:09:43.804Z,11.00
2017-10-20T01:12:12.177Z,11.00
2017-10-20T01:14:41.079Z,11.00
2017-10-20T01:17:09.451Z,11.00
2017-10-20T01:19:37.894Z,11.00
2017-10-20T01:22:07.131Z,11.00
2017-10-20T01:24:35.570Z,11.00
2017-10-20T01:27:04.232Z,11.00
2017-10-20T01:29:33.082Z,11.00
2017-10-20T01:32:01.520Z,11.00
2017-10-20T01:34:29.933Z,11.00
2017-10-20T01:36:58.563Z,11.00
2017-10-20T01:39:27.005Z,11.00
2017-10-20T01:41:55.465Z,10.90
2017-10-20T01:44:24.100Z,10.90
2017-10-20T01:46:52.578Z,11.00
2017-10-20T01:49:20.978Z,10.90
2017-10-20T01:51:49.487Z,10.90
2017-10-20T01:54:18.688Z,10.90
2017-10-20T01:56:47.116Z,10.90
2017-10-20T01:59:16.042Z,10.90
2017-10-20T02:01:44.470Z,10.90
2017-10-20T02:04:12.866Z,10.90
2017-10-20T02:06:41.285Z,10.90
2017-10-20T02:09:09.646Z,10.90
2017-10-20T02:11:38.052Z,10.90
2017-10-20T02:14:07.530Z,10.80
2017-10-20T02:16:36.194Z,10.80
2017-10-20T02:19:04.582Z,10.90
2017-10-20T02:21:33.354Z,10.80
2017-10-20T02:24:01.784Z,10.80
2017-10-20T02:26:30.982Z,10.70
2017-10-20T02:29:00.178Z,10.80
2017-10-20T02:31:29.738Z,10.70
2017-10-20T02:33:58.124Z,10.70
2017-10-20T02:36:26.543Z,10.70
2017-10-20T02:38:55.693Z,10.80
2017-10-20T02:41:24.129Z,10.70
2017-10-20T02:43:52.606Z,10.70
2017-10-20T02:46:20.985Z,10.70
2017-10-20T02:48:49.382Z,10.60
2017-10-20T02:51:17.874Z,10.50
2017-10-20T02:53:46.259Z,10.50
2017-10-20T02:56:14.638Z,10.40
2017-10-20T02:58:43.049Z,10.40
2017-10-20T03:01:11.441Z,10.40
2017-10-20T03:03:39.856Z,10.30
2017-10-20T03:06:08.330Z,10.30
2017-10-20T03:08:36.722Z,10.30
2017-10-20T03:11:05.102Z,10.20
2017-10-20T03:13:33.853Z,10.10
2017-10-20T03:16:02.979Z,10.10
2017-10-20T03:18:31.354Z,10.10
2017-10-20T03:20:59.763Z,10.10
2017-10-20T03:23:28.142Z,10.10
2017-10-20T03:25:56.535Z,10.00
2017-10-20T03:28:24.944Z,10.00
2017-10-20T03:30:53.391Z,10.00
2017-10-20T03:33:22.148Z,9.90
2017-10-20T03:35:50.926Z,9.90
2017-10-20T03:38:19.315Z,10.00
2017-10-20T03:40:47.679Z,10.10
2017-10-20T03:43:16.124Z,10.10
2017-10-20T03:45:44.520Z,10.10
2017-10-20T03:48:13.649Z,10.10
2017-10-20T03:50:42.066Z,10.10
2017-10-20T03:53:10.466Z,10.20
2017-10-20T03:55:38.903Z,10.10
2017-10-20T03:58:07.343Z,10.10
2017-10-20T04:00:36.472Z,10.10
2017-10-20T04:03:04.849Z,10.10
2017-10-20T04:05:33.287Z,10.20
2017-10-20T04:08:02.521Z,10.20
2017-10-20T04:10:30.989Z,10.20
2017-10-20T04:12:59.494Z,10.20
2017-10-20T04:15:27.927Z,10.20
2017-10-20T04:17:56.320Z,10.20
2017-10-20T04:20:24.915Z,10.20
2017-10-20T04:22:53.284Z,10.20
2017-10-20T04:25:21.655Z,10.20
2017-10-20T04:27:51.031Z,10.20
2017-10-20T04:30:19.407Z,10.20
2017-10-20T04:32:47.820Z,10.30
2017-10-20T04:35:16.576Z,10.30
2017-10-20T04:37:44.945Z,10.30
2017-10-20T04:40:13.327Z,10.30
2017-10-20T04:42:41.919Z,10.30
2017-10-20T04:45:11.290Z,10.30
2017-10-20T04:47:39.648Z,10.30
2017-10-20T04:50:08.292Z,10.30
2017-10-20T04:52:37.499Z,10.30
2017-10-20T04:55:06.636Z,10.30
2017-10-20T04:57:35.250Z,10.30
2017-10-20T05:00:03.684Z,10.30
2017-10-20T05:02:32.049Z,10.30
2017-10-20T05:05:00.796Z,10.30
2017-10-20T05:07:29.173Z,10.30
2017-10-20T05:09:57.603Z,10.30
2017-10-20T05:12:26.820Z,10.40
2017-10-20T05:14:55.185Z,10.40
2017-10-20T05:17:23.555Z,10.50
2017-10-20T05:19:51.951Z,10.40
2017-10-20T05:22:20.349Z,10.30
2017-10-20T05:24:48.711Z,10.30
2017-10-20T05:27:17.346Z,10.30
2017-10-20T05:29:46.481Z,10.30
2017-10-20T05:32:14.864Z,10.30
2017-10-20T05:34:43.350Z,10.30
2017-10-20T05:37:12.173Z,10.40
2017-10-20T05:39:40.558Z,10.40
2017-10-20T05:42:09.051Z,10.50
2017-10-20T05:44:37.527Z,10.60
2017-10-20T05:47:05.925Z,10.80
2017-10-20T05:49:35.175Z,10.90
2017-10-20T05:52:03.532Z,11.00
2017-10-20T05:54:31.933Z,10.90
2017-10-20T05:57:00.664Z,10.90
2017-10-20T05:59:30.004Z,10.80
2017-10-20T06:01:58.380Z,10.80
2017-10-20T06:04:26.817Z,10.90
2017-10-20T06:06:55.991Z,11.20
2017-10-20T06:09:25.196Z,11.20
2017-10-20T06:11:53.600Z,11.20
2017-10-20T06:14:22.754Z,11.10
2017-10-20T06:16:51.152Z,11.10
2017-10-20T06:19:19.596Z,10.90
2017-10-20T06:21:47.965Z,11.00
2017-10-20T06:24:16.374Z,11.00
2017-10-20T06:26:45.066Z,11.00
2017-10-20T06:29:13.453Z,11.10
2017-10-20T06:31:41.842Z,11.10
2017-10-20T06:34:10.253Z,11.10
2017-10-20T06:36:39.446Z,11.20
2017-10-20T06:39:08.800Z,11.20
2017-10-20T06:41:37.380Z,11.20
2017-10-20T06:44:05.811Z,11.30
2017-10-20T06:46:34.250Z,11.30
2017-10-20T06:49:02.825Z,11.40
2017-10-20T06:51:31.295Z,11.40
2017-10-20T06:53:59.708Z,11.40
2017-10-20T06:56:28.486Z,11.40
2017-10-20T06:58:56.869Z,11.40
2017-10-20T07:01:25.287Z,11.50
2017-10-20T07:03:54.719Z,11.60
2017-10-20T07:06:23.144Z,11.50
2017-10-20T07:08:51.591Z,11.50
2017-10-20T07:11:20.031Z,11.50
2017-10-20T07:13:48.792Z,11.60
2017-10-20T07:16:17.244Z,11.50
2017-10-20T07:18:45.834Z,11.50
2017-10-20T07:21:14.240Z,11.50
2017-10-20T07:23:43.434Z,11.40
2017-10-20T07:26:11.912Z,11.40
2017-10-20T07:28:41.097Z,11.40
2017-10-20T07:31:09.530Z,11.40
2017-10-20T07:33:38.049Z,11.40
2017-10-20T07:36:06.483Z,11.50
2017-10-20T07:38:35.104Z,11.60
2017-10-20T07:41:04.316Z,11.70
2017-10-20T07:43:33.576Z,11.80
2017-10-20T07:46:02.027Z,11.80
2017-10-20T07:48:31.428Z,11.80
2017-10-20T07:51:00.619Z,11.70
2017-10-20T07:53:29.858Z,11.60
2017-10-20T07:55:59.253Z,11.60
2017-10-20T07:58:27.625Z,11.50
2017-10-20T08:00:56.024Z,11.60
2017-10-20T08:03:26.105Z,11.70
2017-10-20T08:05:55.924Z,11.80
2017-10-20T08:08:25.076Z,11.80
2017-10-20T08:10:53.493Z,11.80
2017-10-20T08:13:21.923Z,11.80
2017-10-20T08:15:50.363Z,11.80
2017-10-20T08:18:20.040Z,11.90
2017-10-20T08:20:48.447Z,11.90
2017-10-20T08:23:17.662Z,11.90
2017-10-20T08:25:46.936Z,11.90
2017-10-20T08:28:18.030Z,11.90
2017-10-20T08:30:46.407Z,11.90
2017-10-20T08:33:14.902Z,12.00
2017-10-20T08:35:44.562Z,12.00
2017-10-20T08:38:14.757Z,12.00
2017-10-20T08:40:45.255Z,12.00
2017-10-20T08:43:14.670Z,12.10
2017-10-20T08:45:44.097Z,12.10
2017-10-20T08:48:12.704Z,12.20
2017-10-20T08:50:41.530Z,12.20
2017-10-20T08:53:11.174Z,12.30
2017-10-20T08:55:39.827Z,12.30
2017-10-20T08:58:08.279Z,12.30
2017-10-20T09:00:37.636Z,12.30
2017-10-20T09:03:06.220Z,12.30
2017-10-20T09:05:35.466Z,12.40
2017-10-20T09:08:04.838Z,12.40
2017-10-20T09:10:34.002Z,12.40
2017-10-20T09:13:03.676Z,12.40
2017-10-20T09:15:32.076Z,12.40
2017-10-20T09:18:00.705Z,12.40
2017-10-20T09:20:30.100Z,12.50
2017-10-20T09:22:59.307Z,12.60
2017-10-20T09:25:28.704Z,12.60
2017-10-20T09:27:57.868Z,12.70
2017-10-20T09:30:26.464Z,12.70
2017-10-20T09:32:56.812Z,12.80
2017-10-20T09:35:26.969Z,13.00
2017-10-20T09:37:55.995Z,12.90
2017-10-20T09:40:24.479Z,13.20
2017-10-20T09:42:53.139Z,13.20
2017-10-20T09:45:22.186Z,13.80
2017-10-20T09:47:51.757Z,13.60
2017-10-20T09:50:20.659Z,13.60
2017-10-20T09:52:49.104Z,13.60
2017-10-20T09:55:17.597Z,13.70
2017-10-20T09:57:46.924Z,14.40
2017-10-20T10:00:15.434Z,15.00
2017-10-20T10:02:45.408Z,15.50
2017-10-20T10:05:13.854Z,15.50
2017-10-20T10:07:43.454Z,15.80
2017-10-20T10:10:12.341Z,16.00
2017-10-20T10:12:40.834Z,15.90
2017-10-20T10:15:09.259Z,15.30
2017-10-20T10:17:38.134Z,15.10
2017-10-20T10:20:06.623Z,14.90
2017-10-20T10:22:35.841Z,15.10
2017-10-20T10:25:04.324Z,15.10
2017-10-20T10:27:32.748Z,15.00
2017-10-20T10:30:01.240Z,15.00
2017-10-20T10:32:30.697Z,15.10
2017-10-20T10:35:00.006Z,15.10
2017-10-20T10:37:29.159Z,15.20
2017-10-20T10:39:57.645Z,15.20
2017-10-20T10:42:26.793Z,15.40
2017-10-20T10:44:56.453Z,15.40
2017-10-20T10:47:25.786Z,15.50
2017-10-20T10:49:55.016Z,15.50
2017-10-20T10:52:24.298Z,15.50
2017-10-20T10:57:28.176Z,15.70
2017-10-20T10:59:56.742Z,15.70
2017-10-20T11:02:25.175Z,15.80
2017-10-20T11:04:55.134Z,15.80
2017-10-20T11:07:37.476Z,15.70
2017-10-20T11:10:17.607Z,15.60
2017-10-20T11:12:46.821Z,15.50
2017-10-20T11:15:15.325Z,15.50
2017-10-20T11:17:44.025Z,15.60
2017-10-20T11:20:16.896Z,15.60
2017-10-20T11:22:46.072Z,15.50
2017-10-20T11:25:16.496Z,15.50
2017-10-20T11:27:46.194Z,15.50
2017-10-20T11:30:15.407Z,15.50
2017-10-20T11:32:45.835Z,15.50
2017-10-20T11:35:15.783Z,15.50
2017-10-20T11:37:45.324Z,15.40
2017-10-20T11:40:14.611Z,15.40
2017-10-20T11:42:43.049Z,15.40
2017-10-20T11:45:12.184Z,15.50
2017-10-20T11:47:40.962Z,15.40
2017-10-20T11:50:10.408Z,15.50
2017-10-20T11:52:38.819Z,15.50
2017-10-20T11:55:08.227Z,15.70
2017-10-20T11:57:38.245Z,15.80
2017-10-20T12:00:07.613Z,15.70
2017-10-20T12:02:36.201Z,15.70
2017-10-20T12:05:04.842Z,15.80
2017-10-20T12:07:35.455Z,15.90
2017-10-20T12:10:05.039Z,15.90
2017-10-20T12:12:33.563Z,16.00
2017-10-20T12:15:04.244Z,16.00
2017-10-20T12:17:34.606Z,16.00
2017-10-20T12:20:03.048Z,16.00
2017-10-20T12:22:31.450Z,16.00
2017-10-20T12:25:00.724Z,15.90
2017-10-20T12:27:32.395Z,15.90
2017-10-20T12:30:02.024Z,15.90
2017-10-20T12:32:35.140Z,15.90
2017-10-20T12:35:03.973Z,15.90
2017-10-20T12:37:32.469Z,16.20
2017-10-20T12:40:01.846Z,16.40
2017-10-20T12:42:31.668Z,16.80
2017-10-20T12:45:00.900Z,16.90
2017-10-20T12:47:29.272Z,16.80
2017-10-20T12:49:58.957Z,16.40
2017-10-20T12:52:28.131Z,16.40
2017-10-20T12:54:57.487Z,16.40
2017-10-20T12:57:26.131Z,16.70
2017-10-20T12:59:55.361Z,16.40
2017-10-20T13:02:25.420Z,16.70
2017-10-20T13:04:54.241Z,16.70
2017-10-20T13:07:23.595Z,16.90
2017-10-20T13:09:52.089Z,16.50
2017-10-20T13:12:21.168Z,16.50
2017-10-20T13:14:49.633Z,16.30
2017-10-20T13:17:18.306Z,16.50
2017-10-20T13:19:47.797Z,17.60
2017-10-20T13:22:16.385Z,17.60
2017-10-20T13:24:46.374Z,16.50
2017-10-20T13:27:16.268Z,16.50
2017-10-20T13:29:45.143Z,16.60
2017-10-20T13:32:14.409Z,16.70
2017-10-20T13:34:43.150Z,16.70
2017-10-20T13:37:11.542Z,16.90
2017-10-20T13:39:39.942Z,17.00
2017-10-20T13:42:09.130Z,16.80
2017-10-20T13:44:37.634Z,16.90
2017-10-20T13:47:06.905Z,16.40
2017-10-20T13:49:36.406Z,16.40
2017-10-20T13:52:04.991Z,16.30
2017-10-20T13:54:37.116Z,15.90
2017-10-20T13:57:06.128Z,16.20
2017-10-20T13:59:34.532Z,16.50
2017-10-20T14:02:03.164Z,16.40
2017-10-20T14:04:31.681Z,16.20
2017-10-20T14:07:01.012Z,15.90
2017-10-20T14:09:30.321Z,16.10
2017-10-20T14:11:58.945Z,16.10
2017-10-20T14:14:27.321Z,16.30
2017-10-20T14:16:57.026Z,16.40
2017-10-20T14:19:25.664Z,16.60
2017-10-20T14:21:55.250Z,16.50
2017-10-20T14:24:25.064Z,16.50
2017-10-20T14:26:53.527Z,16.60
2017-10-20T14:29:21.910Z,16.50
2017-10-20T14:31:51.412Z,16.50
2017-10-20T14:34:20.067Z,16.60
2017-10-20T14:36:48.447Z,16.20
2017-10-20T14:39:16.929Z,16.20
2017-10-20T14:41:46.377Z,16.40
2017-10-20T14:44:17.286Z,16.40
2017-10-20T14:46:46.350Z,16.30
2017-10-20T14:49:15.621Z,16.20
2017-10-20T14:51:44.792Z,16.20
2017-10-20T14:54:13.563Z,16.30
2017-10-20T14:56:45.267Z,16.30
2017-10-20T14:59:17.003Z,16.40
2017-10-20T15:01:49.754Z,16.10
2017-10-20T15:04:18.163Z,16.10
2017-10-20T15:06:46.649Z,15.90
2017-10-20T15:09:15.499Z,15.90
2017-10-20T15:11:45.740Z,15.90
2017-10-20T15:14:14.181Z,15.80
2017-10-20T15:16:43.863Z,15.90
2017-10-20T15:19:12.423Z,15.80
2017-10-20T15:21:41.472Z,15.80
2017-10-20T15:24:10.666Z,15.60
2017-10-20T15:26:39.913Z,15.60
2017-10-20T15:29:09.286Z,15.60
2017-10-20T15:31:37.999Z,15.50
2017-10-20T15:34:06.606Z,15.50
2017-10-20T15:36:35.050Z,15.50
2017-10-20T15:39:03.700Z,15.40
2017-10-20T15:41:32.127Z,15.30
2017-10-20T15:44:00.652Z,15.30
2017-10-20T15:46:29.284Z,15.20
2017-10-20T15:48:58.515Z,15.10
2017-10-20T15:51:26.923Z,15.00
2017-10-20T15:53:57.672Z,14.80
2017-10-20T15:56:26.669Z,14.80
2017-10-20T15:58:56.459Z,14.70
2017-10-20T16:01:25.862Z,14.60
2017-10-20T16:03:54.588Z,14.60
2017-10-20T16:06:23.467Z,14.40
2017-10-20T16:08:52.169Z,14.40
2017-10-20T16:11:20.662Z,14.30
2017-10-20T16:13:49.063Z,14.20
2017-10-20T16:16:18.369Z,14.10
2017-10-20T16:18:46.820Z,14.10
2017-10-20T16:21:15.257Z,14.00
2017-10-20T16:23:44.267Z,13.90
2017-10-20T16:26:13.657Z,13.80
2017-10-20T16:28:42.085Z,13.80
2017-10-20T16:31:11.432Z,13.70
2017-10-20T16:33:40.877Z,13.40
2017-10-20T16:36:09.300Z,13.40
2017-10-20T16:38:39.698Z,13.30
2017-10-20T16:41:08.157Z,13.30
2017-10-20T16:43:36.612Z,13.20
2017-10-20T16:46:08.188Z,13.10
2017-10-20T16:48:36.740Z,13.00
2017-10-20T16:51:05.322Z,13.00
2017-10-20T16:53:35.688Z,12.90
2017-10-20T16:56:04.129Z,12.90
2017-10-20T16:58:33.758Z,12.70
2017-10-20T17:01:02.193Z,12.70
2017-10-20T17:03:30.568Z,12.70
2017-10-20T17:05:58.957Z,12.60
2017-10-20T17:08:28.142Z,12.60
2017-10-20T17:10:56.563Z,12.50
2017-10-20T17:13:24.961Z,12.50
2017-10-20T17:15:53.369Z,12.50
2017-10-20T17:18:21.757Z,12.40
2017-10-20T17:20:50.144Z,12.30
2017-10-20T17:23:18.646Z,12.30
2017-10-20T17:25:47.788Z,12.30
2017-10-20T17:28:16.173Z,12.30
2017-10-20T17:30:44.656Z,12.30
2017-10-20T17:33:13.047Z,12.20
2017-10-20T17:35:41.435Z,12.20
2017-10-20T17:38:09.834Z,12.20
2017-10-20T17:40:38.222Z,12.20
2017-10-20T17:43:07.511Z,12.20
2017-10-20T17:45:40.266Z,12.20
2017-10-20T17:48:08.754Z,12.10
2017-10-20T17:50:41.131Z,12.00
2017-10-20T17:53:09.928Z,12.00
2017-10-20T17:55:38.323Z,12.00
2017-10-20T17:58:06.952Z,12.00
2017-10-20T18:00:35.542Z,12.00
2017-10-20T18:03:03.921Z,11.90
2017-10-20T18:05:32.504Z,11.90
2017-10-20T18:08:00.909Z,11.90
2017-10-20T18:10:29.327Z,11.90
2017-10-20T18:12:58.060Z,11.90
2017-10-20T18:15:26.496Z,11.90
2017-10-20T18:17:55.493Z,11.90
2017-10-20T18:20:24.037Z,11.90
2017-10-20T18:22:52.460Z,11.90
2017-10-20T18:25:20.913Z,11.90
2017-10-20T18:27:49.546Z,12.00
2017-10-20T18:30:17.906Z,12.10
2017-10-20T18:32:46.287Z,12.10
2017-10-20T18:35:15.455Z,12.10
2017-10-20T18:37:44.858Z,12.20
2017-10-20T18:40:14.550Z,12.20
2017-10-20T18:42:43.079Z,12.20
2017-10-20T18:45:12.550Z,12.10
2017-10-20T18:47:41.096Z,12.10
2017-10-20T18:50:09.922Z,12.10
2017-10-20T18:52:39.084Z,11.90
2017-10-20T18:55:07.462Z,11.90
2017-10-20T18:57:36.308Z,11.80
2017-10-20T19:00:05.503Z,11.70
2017-10-20T19:02:34.201Z,11.70
2017-10-20T19:05:02.639Z,11.50
2017-10-20T19:07:31.805Z,11.50
2017-10-20T19:10:00.193Z,11.50
2017-10-20T19:12:28.615Z,11.40
2017-10-20T19:14:57.338Z,11.40
2017-10-20T19:17:25.719Z,11.40
2017-10-20T19:19:54.158Z,11.40
2017-10-20T19:22:22.564Z,11.30
2017-10-20T19:24:50.965Z,11.30
2017-10-20T19:27:19.704Z,11.30
2017-10-20T19:29:48.077Z,11.30
2017-10-20T19:32:16.440Z,11.40
2017-10-20T19:34:44.868Z,11.40
2017-10-20T19:37:13.255Z,11.30
2017-10-20T19:39:44.812Z,11.30
2017-10-20T19:42:13.213Z,11.30
2017-10-20T19:44:43.555Z,11.30
2017-10-20T19:47:12.769Z,11.30
2017-10-20T19:49:42.104Z,11.40
2017-10-20T19:52:10.496Z,11.40
2017-10-20T19:54:38.914Z,11.40
2017-10-20T19:57:08.216Z,11.40
2017-10-20T19:59:36.593Z,11.40
2017-10-20T20:02:07.537Z,11.50
2017-10-20T20:04:36.890Z,11.50
2017-10-20T20:07:05.621Z,11.40
2017-10-20T20:09:34.214Z,11.40
2017-10-20T20:12:03.700Z,11.30
2017-10-20T20:14:33.667Z,11.30
2017-10-20T20:17:02.213Z,11.20
2017-10-20T20:19:31.509Z,11.20
2017-10-20T20:22:00.709Z,11.10
2017-10-20T20:24:34.053Z,11.10
2017-10-20T20:27:02.523Z,11.10
2017-10-20T20:29:30.958Z,11.00
2017-10-20T20:32:15.114Z,10.70
2017-10-20T20:34:44.318Z,10.60
2017-10-20T20:37:13.509Z,10.70
2017-10-20T20:39:42.693Z,10.70
2017-10-20T20:42:11.065Z,10.60
2017-10-20T20:44:40.987Z,10.60
2017-10-20T20:47:10.798Z,10.60
2017-10-20T20:49:39.310Z,10.50
2017-10-20T20:52:07.742Z,10.40
2017-10-20T20:54:36.154Z,10.50
2017-10-20T20:57:05.367Z,10.50
2017-10-20T20:59:33.797Z,10.40
2017-10-20T21:02:04.254Z,10.50
2017-10-20T21:04:35.277Z,10.40
2017-10-20T21:07:04.879Z,10.40
2017-10-20T21:09:36.246Z,10.40
2017-10-20T21:12:05.457Z,10.20
2017-10-20T21:14:36.707Z,10.20
2017-10-20T21:17:05.860Z,10.00
2017-10-20T21:19:34.422Z,10.00
2017-10-20T21:22:02.818Z,10.10
2017-10-20T21:24:31.275Z,10.00
2017-10-20T21:27:00.242Z,10.00
2017-10-20T21:29:29.783Z,10.00
2017-10-20T21:31:58.151Z,10.00
2017-10-20T21:34:26.908Z,9.90
2017-10-20T21:36:55.292Z,9.90
2017-10-20T21:39:24.429Z,9.80
2017-10-20T21:41:52.825Z,9.70
2017-10-20T21:44:21.176Z,9.60
2017-10-20T21:46:50.338Z,9.50
2017-10-20T21:49:18.839Z,9.50
2017-10-20T21:51:47.198Z,9.50
2017-10-20T21:54:15.669Z,9.50
2017-10-20T21:56:44.863Z,9.30
2017-10-20T21:59:13.596Z,9.30
2017-10-20T22:01:41.973Z,9.30
2017-10-20T22:04:10.540Z,9.20
2017-10-20T22:06:38.918Z,9.20
2017-10-20T22:09:07.374Z,9.20
2017-10-20T22:11:36.545Z,9.20
2017-10-20T22:14:06.265Z,9.20
2017-10-20T22:16:34.609Z,9.10
2017-10-20T22:19:03.034Z,9.20
2017-10-20T22:21:32.170Z,9.20
2017-10-20T22:24:00.734Z,9.20
2017-10-20T22:26:29.183Z,9.20
2017-10-20T22:28:57.556Z,9.30
2017-10-20T22:31:26.516Z,9.20
2017-10-20T22:33:55.046Z,9.30
2017-10-20T22:36:23.443Z,9.30
2017-10-20T22:38:51.883Z,9.20
2017-10-20T22:41:20.367Z,9.20
2017-10-20T22:43:48.787Z,9.20
2017-10-20T22:46:17.150Z,9.10
2017-10-20T22:48:46.518Z,9.10
2017-10-20T22:51:16.471Z,9.10
2017-10-20T22:53:45.105Z,9.20
2017-10-20T22:56:14.860Z,9.10
2017-10-20T22:58:44.043Z,9.10
2017-10-20T23:01:12.399Z,9.10
2017-10-20T23:03:42.421Z,9.00
2017-10-20T23:06:10.769Z,9.00
2017-10-20T23:08:39.118Z,8.90
2017-10-20T23:11:08.652Z,8.80
2017-10-20T23:13:38.119Z,8.80
2017-10-20T23:16:06.550Z,8.90
2017-10-20T23:18:35.297Z,8.80
2017-10-20T23:21:04.427Z,8.80
2017-10-20T23:23:32.981Z,8.80
2017-10-20T23:26:02.439Z,8.70
2017-10-20T23:28:31.128Z,8.80
2017-10-20T23:30:59.508Z,8.80
2017-10-20T23:33:28.569Z,8.90
2017-10-20T23:35:57.024Z,9.00
2017-10-20T23:38:27.216Z,8.90
2017-10-20T23:40:55.622Z,8.90
2017-10-20T23:43:24.750Z,8.90
2017-10-20T23:45:53.133Z,8.80
2017-10-20T23:48:23.511Z,8.90
2017-10-20T23:50:52.793Z,8.90
2017-10-20T23:53:21.163Z,8.90
2017-10-20T23:55:49.544Z,8.90
2017-10-20T23:58:17.905Z,8.80
